Carmen, ID

10:29 AM MDT on September 22, 2014 (GMT -0600)
RAWS KRILEY CREEK ID US | Change Station
CLOSE
Current Station
Personal Weather Station
Location: North Fork, ID
Elevation: 5200 ft
Nearby Weather Stations

Elev 5200 ft 45.36 °N, 113.90 °W | Updated 38 minutes ago

Mostly Cloudy
Mostly Cloudy
61 °F
Feels Like 61 °F
N
10
Wind Variable Wind from South
Gusts 14.0 mph

Today
High -- | Low -- °F
--% Chance of Precip.
Yesterday
High -- | Low -- °F
Precip. -- in
7:22 AM 7:32 PM
Waning Crescent, 2% visible
Pressure 30.08 in
Visibility 10.0 miles
Clouds Few 12000 ft
Dew Point 52 °F
Humidity 71%
Rainfall 0.00 in
Snow Depth 1 in , 0 in , 0 in
UV 3 out of 12
Pollen 5.60 out of 12
Air Quality Not available.
Flu Activity Not available.
METAR KSMN 221615Z AUTO 00000KT 10SM FEW120 17/11 A3008 RMK AO1

More Conditions Fewer Conditions

Pressure 30.08 in
Visibility 10.0 miles
Clouds Few 12000 ft
Dew Point 52 °F
Humidity 71%
Rainfall 0.00 in
Snow Depth 1 in , 0 in , 0 in
UV 3 out of 12
Pollen 5.60 out of 12
Air Quality Not available.
Flu Activity Not available.
METAR KSMN 221615Z AUTO 00000KT 10SM FEW120 17/11 A3008 RMK AO1

More Conditions Fewer Conditions

10-Day Weather Forecast

Almanac

Astronomy

Sep. 22, 2014 Rise Set
Actual Time 7:22 AM MDT 7:32 PM MDT
Civil Twilight 6:53 AM MDT 8:02 PM MDT
Nautical Twilight 6:18 AM MDT 8:36 PM MDT
Astronomical Twilight 5:42 AM MDT 9:12 PM MDT
Moon 5:52 AM MDT 6:44 PM MDT
Length of Visible Light 13h 09m
Length of Day
12h 10m
Tomorrow will be 3m 9s shorter.
Waning Crescent, 2% of the Moon is Illuminated
Today
Waning Crescent
Sep 24
New
Oct 1
First Quarter
Oct 8
Full
Oct 15
Last Quarter

Today's Extremes

State Highs State Lows

Community

WunderPhotos

Upload Photos

1,755,478 photos uploaded!

WunderBlogs® & News

By Dr. Jeff Masters
Director of Meteorology, Weather Underground
By Kari Strenfel
Meteorologist, Weather Underground
By Christopher C. Burt
Weather Historian, Weather Underground
September 22, 2014
September 22, 2014
September 22, 2014

Nearby

Snow Depth

Station Depth Elevation
Camas Creek Divide 1 in 5710 ft
Stickney Mill 0 in 7430 ft
Sunset 0 in 5540 ft
Trinity Mountain 1 in 7770 ft
Galena 0 in 7440 ft

Earthquake Activity

City Distance Mag. Time & Date
No recent earthquake activity has been reported nearby.
Minimum magnitude displayed is 2.5.

Coastal Water Temperatures

Place Temperature
No Stations Reporting

Nearby Weather Stations